Time;durP1;ratioP1;P1;durP2;ratioP2;P2;SDS_P1;SDS_P2;PMS_P1;PMS_P2;Temp;Humidity;BMP_temperature;BMP_pressure;BME280_temperature;BME280_humidity;BME280_pressure;Samples;Min_cycle;Max_cycle;Signal;HPM_P1;HPM_P2
2021/01/27 00:00:52;;;;;;;6.82;3.50;;;3.50;87.20;;;;;;2086843;28;20018;-82
2021/01/27 00:01:52;;;;;;;7.35;3.50;;;3.50;87.10;;;;;;2084087;28;20026;-81
2021/01/27 00:02:53;;;;;;;5.78;3.13;;;3.50;87.00;;;;;;2093984;28;20032;-81
2021/01/27 00:03:54;;;;;;;5.55;3.20;;;3.40;87.00;;;;;;2100551;28;20020;-83
2021/01/27 00:04:55;;;;;;;7.45;3.15;;;3.50;87.10;;;;;;2082902;28;20030;-81
2021/01/27 00:05:55;;;;;;;5.60;3.22;;;3.40;87.00;;;;;;2067784;28;20057;-81
2021/01/27 00:06:56;;;;;;;5.05;2.80;;;3.40;87.00;;;;;;2075267;28;20048;-81
2021/01/27 00:07:57;;;;;;;5.47;2.78;;;3.40;87.60;;;;;;2075045;28;20125;-82
2021/01/27 00:08:58;;;;;;;6.65;3.15;;;3.40;87.00;;;;;;2075553;28;20018;-81
2021/01/27 00:09:58;;;;;;;6.97;3.40;;;3.40;87.00;;;;;;2083635;28;20026;-81
2021/01/27 00:10:59;;;;;;;7.38;3.58;;;3.40;87.00;;;;;;2067731;28;20027;-81
2021/01/27 00:12:00;;;;;;;6.47;3.45;;;3.40;87.00;;;;;;2083208;28;20030;-81
2021/01/27 00:13:02;;;;;;;5.88;2.95;;;3.40;86.90;;;;;;2097329;28;20009;-81
2021/01/27 00:14:03;;;;;;;6.45;3.28;;;3.40;86.90;;;;;;2100992;28;20051;-80
2021/01/27 00:15:11;;;;;;;6.28;3.17;;;3.40;87.00;;;;;;2093989;28;20021;-82
2021/01/27 00:16:12;;;;;;;5.35;2.92;;;3.40;87.00;;;;;;2074677;28;20092;-82
2021/01/27 00:17:12;;;;;;;5.60;2.88;;;3.30;86.90;;;;;;2077845;28;20037;-82
2021/01/27 00:18:16;;;;;;;7.47;3.58;;;3.40;87.00;;;;;;2082275;28;20389;-82
2021/01/27 00:19:16;;;;;;;5.97;2.92;;;3.40;87.00;;;;;;2088274;28;20025;-82
2021/01/27 00:20:20;;;;;;;7.00;3.08;;;3.40;86.90;;;;;;2087224;28;20080;-82
2021/01/27 00:21:20;;;;;;;4.80;2.63;;;3.30;86.80;;;;;;2091422;28;20029;-82
2021/01/27 00:22:21;;;;;;;6.72;3.25;;;3.40;86.90;;;;;;2094478;28;20107;-81
2021/01/27 00:23:22;;;;;;;5.88;3.10;;;3.40;86.90;;;;;;2090296;28;20043;-82
2021/01/27 00:24:22;;;;;;;6.20;2.92;;;3.40;86.80;;;;;;2082291;28;20380;-82
2021/01/27 00:25:29;;;;;;;6.65;3.63;;;3.40;86.80;;;;;;2084651;28;20025;-82
2021/01/27 00:26:29;;;;;;;5.47;2.88;;;3.40;86.80;;;;;;2088807;28;20025;-81
2021/01/27 00:27:30;;;;;;;5.20;2.83;;;3.40;86.80;;;;;;2085934;28;20095;-82
2021/01/27 00:28:31;;;;;;;6.53;3.33;;;3.30;86.80;;;;;;2069876;28;20146;-82
2021/01/27 00:29:31;;;;;;;5.20;2.85;;;3.30;86.80;;;;;;2074134;28;20029;-82
2021/01/27 00:30:35;;;;;;;5.65;2.97;;;3.30;86.80;;;;;;2102147;28;20004;-82
2021/01/27 00:31:35;;;;;;;6.30;2.88;;;3.30;86.80;;;;;;2100446;28;20020;-81
2021/01/27 00:32:36;;;;;;;6.20;2.78;;;3.30;86.80;;;;;;2084159;28;20052;-81
2021/01/27 00:33:37;;;;;;;6.47;3.10;;;3.40;86.80;;;;;;2083955;28;20066;-81
2021/01/27 00:34:37;;;;;;;5.72;3.05;;;3.40;86.70;;;;;;2084929;28;20022;-82
2021/01/27 00:35:42;;;;;;;6.95;3.20;;;3.30;86.60;;;;;;2083807;28;20025;-82
2021/01/27 00:36:43;;;;;;;6.93;3.25;;;3.30;86.60;;;;;;2082780;28;20030;-82
2021/01/27 00:37:43;;;;;;;6.35;3.15;;;3.40;86.60;;;;;;2094458;28;20510;-82
2021/01/27 00:38:44;;;;;;;5.40;2.88;;;3.40;86.50;;;;;;2089878;28;20036;-82
2021/01/27 00:39:45;;;;;;;5.70;3.33;;;3.40;86.50;;;;;;2081926;28;20017;-82
2021/01/27 00:40:46;;;;;;;5.50;3.22;;;3.40;86.50;;;;;;2088127;28;20033;-82
2021/01/27 00:41:46;;;;;;;5.43;3.00;;;3.40;86.50;;;;;;2074625;28;20053;-82
2021/01/27 00:42:47;;;;;;;5.45;3.22;;;3.40;86.40;;;;;;2082900;28;20434;-82
2021/01/27 00:43:48;;;;;;;7.00;3.17;;;3.40;86.40;;;;;;2081883;28;20034;-82
2021/01/27 00:44:49;;;;;;;7.15;3.20;;;3.40;86.30;;;;;;2083525;28;20029;-82
2021/01/27 00:45:50;;;;;;;6.90;3.17;;;3.40;86.30;;;;;;2088482;28;20041;-81
2021/01/27 00:46:51;;;;;;;5.78;3.03;;;3.40;86.30;;;;;;2073936;28;20068;-81
2021/01/27 00:47:51;;;;;;;6.93;2.92;;;3.40;86.30;;;;;;2085439;28;20037;-81
2021/01/27 00:48:52;;;;;;;6.78;3.22;;;3.40;86.20;;;;;;2061690;28;20026;-81
2021/01/27 00:49:52;;;;;;;6.57;3.28;;;3.40;86.10;;;;;;2068138;28;20475;-81
2021/01/27 00:50:54;;;;;;;5.93;3.30;;;3.40;86.20;;;;;;2092530;28;20033;-82
2021/01/27 00:51:54;;;;;;;5.97;3.42;;;3.40;86.20;;;;;;2073727;28;20432;-81
2021/01/27 00:52:55;;;;;;;5.03;3.17;;;3.30;86.10;;;;;;2074730;28;20033;-81
2021/01/27 00:53:56;;;;;;;7.05;2.97;;;3.40;86.10;;;;;;2089903;28;20025;-81
2021/01/27 00:54:56;;;;;;;5.68;3.10;;;3.40;86.10;;;;;;2090380;28;20024;-81
2021/01/27 00:55:57;;;;;;;4.80;2.83;;;3.30;86.00;;;;;;2089728;28;20484;-81
2021/01/27 00:56:58;;;;;;;5.63;3.05;;;3.30;86.00;;;;;;2081649;28;20124;-81
2021/01/27 00:57:59;;;;;;;6.00;3.22;;;3.40;86.00;;;;;;2089790;28;20391;-81
2021/01/27 00:59:00;;;;;;;5.90;3.05;;;3.40;86.00;;;;;;2082040;28;20391;-82
2021/01/27 01:00:00;;;;;;;5.80;2.83;;;3.40;86.00;;;;;;2087958;28;20345;-81
2021/01/27 01:01:01;;;;;;;5.07;2.78;;;3.30;85.90;;;;;;2090096;28;20032;-82
2021/01/27 01:02:02;;;;;;;6.40;2.90;;;3.40;85.90;;;;;;2072850;28;20084;-82
2021/01/27 01:03:04;;;;;;;4.75;3.00;;;3.40;85.90;;;;;;2070708;28;20109;-81
2021/01/27 01:04:06;;;;;;;4.60;2.70;;;3.30;85.90;;;;;;2082434;28;20029;-81
2021/01/27 01:05:12;;;;;;;7.13;3.30;;;3.40;85.80;;;;;;2084375;28;20020;-82
2021/01/27 01:06:13;;;;;;;6.35;3.30;;;3.40;85.80;;;;;;2088948;28;20056;-82
2021/01/27 01:07:13;;;;;;;6.07;2.85;;;3.40;85.80;;;;;;2082005;28;20538;-82
2021/01/27 01:08:17;;;;;;;5.22;2.95;;;3.30;85.70;;;;;;2076232;28;20034;-82
2021/01/27 01:09:18;;;;;;;5.65;2.97;;;3.30;85.70;;;;;;2075907;28;20064;-82
2021/01/27 01:10:29;;;;;;;4.78;2.65;;;3.30;85.70;;;;;;2071815;28;20530;-82
2021/01/27 01:11:30;;;;;;;6.20;3.30;;;3.30;85.70;;;;;;2075059;28;20088;-81
2021/01/27 01:12:30;;;;;;;5.72;3.15;;;3.30;85.70;;;;;;2076439;28;20034;-81
2021/01/27 01:13:31;;;;;;;5.35;3.22;;;3.30;85.60;;;;;;2073011;28;20022;-81
2021/01/27 01:14:32;;;;;;;6.15;3.30;;;3.30;85.60;;;;;;2078378;28;20040;-81
2021/01/27 01:15:33;;;;;;;6.28;3.10;;;3.30;85.60;;;;;;2083023;28;20396;-82
2021/01/27 01:16:33;;;;;;;5.60;3.42;;;3.30;85.60;;;;;;2073238;28;20085;-82
2021/01/27 01:17:34;;;;;;;7.05;3.30;;;3.30;85.60;;;;;;2083657;28;20049;-81
2021/01/27 01:18:35;;;;;;;5.57;3.28;;;3.30;85.60;;;;;;2079431;28;20068;-82
2021/01/27 01:19:36;;;;;;;5.28;2.72;;;3.30;85.60;;;;;;2065583;28;20036;-82
2021/01/27 01:20:36;;;;;;;5.72;3.08;;;3.30;85.60;;;;;;2065046;28;20027;-82
2021/01/27 01:21:37;;;;;;;5.60;2.97;;;3.30;85.60;;;;;;2065457;28;20129;-81
2021/01/27 01:22:37;;;;;;;7.22;3.33;;;3.30;85.60;;;;;;2070677;28;20040;-81
2021/01/27 01:23:38;;;;;;;5.07;2.95;;;3.30;85.50;;;;;;2086829;28;20037;-81
2021/01/27 01:24:39;;;;;;;5.20;2.88;;;3.30;85.50;;;;;;2081045;28;20053;-81
2021/01/27 01:25:39;;;;;;;6.45;3.22;;;3.30;85.50;;;;;;2066576;28;20049;-82
2021/01/27 01:26:40;;;;;;;4.15;2.40;;;3.30;85.50;;;;;;2077260;28;20065;-81
2021/01/27 01:27:44;;;;;;;5.57;2.90;;;3.30;85.50;;;;;;2089194;28;20922;-81
2021/01/27 01:28:45;;;;;;;6.20;2.97;;;3.30;85.50;;;;;;2073600;28;20116;-81
2021/01/27 01:29:46;;;;;;;4.53;2.70;;;3.30;85.50;;;;;;2074880;28;20049;-81
2021/01/27 01:30:47;;;;;;;6.03;2.63;;;3.30;85.50;;;;;;2082151;28;20373;-81
2021/01/27 01:31:48;;;;;;;7.20;3.10;;;3.30;85.50;;;;;;2073529;28;20038;-81
2021/01/27 01:32:49;;;;;;;5.45;2.75;;;3.30;86.00;;;;;;2067297;28;20448;-81
2021/01/27 01:33:49;;;;;;;5.68;3.13;;;3.30;85.40;;;;;;2080904;28;20041;-81
2021/01/27 01:34:50;;;;;;;5.05;2.78;;;3.30;85.40;;;;;;2075780;28;20423;-81
2021/01/27 01:35:50;;;;;;;5.28;2.70;;;3.30;85.40;;;;;;2064417;28;20069;-81
2021/01/27 01:36:51;;;;;;;5.18;2.97;;;3.30;85.30;;;;;;2073230;28;20498;-81
2021/01/27 01:37:52;;;;;;;4.85;2.70;;;3.30;85.40;;;;;;2076512;28;20039;-80
2021/01/27 01:38:53;;;;;;;5.70;2.85;;;3.30;85.40;;;;;;2081368;28;20021;-81
2021/01/27 01:39:53;;;;;;;4.50;2.35;;;3.30;85.30;;;;;;2087821;28;20386;-80
2021/01/27 01:40:57;;;;;;;5.95;2.53;;;3.30;85.30;;;;;;2089234;28;20067;-81
2021/01/27 01:41:58;;;;;;;6.30;2.70;;;3.30;85.20;;;;;;2088573;28;20466;-81
2021/01/27 01:43:23;;;;;;;4.70;2.75;;;3.30;85.80;;;;;;2074293;28;20037;-81
2021/01/27 01:44:24;;;;;;;4.35;2.40;;;3.30;85.20;;;;;;2076231;28;20569;-81
2021/01/27 01:45:29;;;;;;;5.22;2.58;;;3.30;85.20;;;;;;2085254;28;20067;-81
2021/01/27 01:46:30;;;;;;;5.22;2.40;;;3.30;85.20;;;;;;2088469;28;20102;-81
2021/01/27 01:47:30;;;;;;;5.18;2.75;;;3.30;85.80;;;;;;2072722;28;20480;-81
2021/01/27 01:48:45;;;;;;;4.85;2.60;;;3.30;85.20;;;;;;2071853;28;20057;-81
2021/01/27 01:49:47;;;;;;;4.68;2.42;;;3.30;85.20;;;;;;2073700;28;20018;-81
2021/01/27 01:50:52;;;;;;;5.50;2.85;;;3.30;85.10;;;;;;2088442;28;20025;-81
2021/01/27 01:51:57;;;;;;;5.63;2.83;;;3.30;85.10;;;;;;2078989;28;20030;-82
2021/01/27 01:52:59;;;;;;;5.07;2.65;;;3.30;85.00;;;;;;2081214;28;20067;-81
2021/01/27 01:54:05;;;;;;;7.28;3.10;;;3.30;85.10;;;;;;2082221;28;20024;-81
2021/01/27 01:55:06;;;;;;;4.88;2.60;;;3.30;85.00;;;;;;2082111;28;20021;-81
2021/01/27 01:56:12;;;;;;;5.35;2.60;;;3.30;85.00;;;;;;2073452;28;20140;-81
2021/01/27 01:57:21;;;;;;;5.72;2.67;;;3.30;85.00;;;;;;2066321;28;20049;-82
2021/01/27 01:58:22;;;;;;;4.40;2.85;;;3.30;85.00;;;;;;2081587;28;20079;-81
2021/01/27 01:59:23;;;;;;;4.85;2.42;;;3.30;85.00;;;;;;2081126;28;20032;-81
2021/01/27 02:00:26;;;;;;;5.22;2.70;;;3.30;85.00;;;;;;2073744;28;20022;-81
2021/01/27 02:01:28;;;;;;;5.63;2.70;;;3.30;85.00;;;;;;2069672;28;20029;-81
2021/01/27 02:02:28;;;;;;;5.72;2.70;;;3.30;85.60;;;;;;2065407;28;20030;-81
2021/01/27 02:03:32;;;;;;;5.18;2.65;;;3.30;85.00;;;;;;2083480;28;20475;-81
2021/01/27 02:04:40;;;;;;;6.03;2.90;;;3.30;85.00;;;;;;2088821;28;20025;-81
2021/01/27 02:05:41;;;;;;;4.63;2.70;;;3.30;85.10;;;;;;2079093;28;20068;-81
2021/01/27 02:06:41;;;;;;;4.45;2.50;;;3.30;85.10;;;;;;2081089;28;20396;-81
2021/01/27 02:07:42;;;;;;;4.60;2.75;;;3.30;85.10;;;;;;2072077;28;20444;-81
2021/01/27 02:08:49;;;;;;;4.90;2.58;;;3.30;85.10;;;;;;2071294;28;20400;-81
2021/01/27 02:09:49;;;;;;;6.65;2.50;;;3.30;85.10;;;;;;2077941;28;20024;-80
2021/01/27 02:10:50;;;;;;;4.13;2.50;;;3.30;85.00;;;;;;2063265;28;20408;-81
2021/01/27 02:12:12;;;;;;;5.68;2.75;;;3.30;85.00;;;;;;2073231;28;20034;-81
2021/01/27 02:13:21;;;;;;;5.00;2.70;;;3.30;85.10;;;;;;2077412;28;20025;-81
2021/01/27 02:14:48;;;;;;;5.60;3.10;;;3.30;85.10;;;;;;2077655;28;20030;-82
2021/01/27 02:15:57;;;;;;;6.18;2.80;;;3.30;85.10;;;;;;2087058;28;20033;-81
2021/01/27 02:17:32;;;;;;;4.35;2.50;;;3.20;85.00;;;;;;2081350;28;20056;-82
2021/01/27 02:18:54;;;;;;;6.63;2.92;;;3.20;85.00;;;;;;2081541;28;20570;-80
2021/01/27 02:20:22;;;;;;;4.47;2.42;;;3.20;85.10;;;;;;2089331;28;20033;-81
2021/01/27 02:21:59;;;;;;;5.55;2.50;;;3.20;85.10;;;;;;2087724;28;20103;-81
2021/01/27 02:23:33;;;;;;;5.22;2.80;;;3.20;85.10;;;;;;2087155;28;20021;-82
2021/01/27 02:25:05;;;;;;;4.80;2.60;;;3.20;85.10;;;;;;2084882;28;20021;-82
2021/01/27 02:26:49;;;;;;;5.30;2.70;;;3.20;85.20;;;;;;2075525;28;20034;-81
2021/01/27 02:27:52;;;;;;;4.85;2.60;;;3.10;85.20;;;;;;2076196;28;20033;-81
2021/01/27 02:29:11;;;;;;;4.75;2.53;;;3.10;85.20;;;;;;2063908;28;20038;-82
2021/01/27 02:30:48;;;;;;;4.38;2.65;;;3.10;85.20;;;;;;2071650;28;20037;-81
2021/01/27 02:32:27;;;;;;;4.78;2.22;;;3.10;85.30;;;;;;2074939;28;20033;-81
2021/01/27 02:33:54;;;;;;;4.70;2.40;;;3.10;85.30;;;;;;2080119;28;20476;-82
2021/01/27 02:34:57;;;;;;;5.00;2.50;;;3.10;85.30;;;;;;2076238;28;20030;-81
2021/01/27 02:36:24;;;;;;;4.03;2.35;;;3.10;85.30;;;;;;2080461;28;20029;-81
2021/01/27 02:37:32;;;;;;;4.65;2.40;;;3.10;85.40;;;;;;2080954;28;20030;-82
2021/01/27 02:38:53;;;;;;;4.25;2.40;;;3.10;85.40;;;;;;2080027;28;20602;-80
2021/01/27 02:39:58;;;;;;;;;;;3.10;85.50;;;;;;2081047;28;20435;-81
2021/01/27 02:41:19;;;;;;;4.72;2.30;;;3.10;85.50;;;;;;2075887;28;19921;-81
2021/01/27 02:42:29;;;;;;;6.90;2.60;;;3.10;85.50;;;;;;2083530;28;20029;-81
2021/01/27 02:43:42;;;;;;;3.95;2.00;;;3.10;85.50;;;;;;2087504;28;20021;-81
2021/01/27 02:45:01;;;;;;;4.53;2.35;;;3.10;85.50;;;;;;2073752;28;20431;-82
2021/01/27 02:46:10;;;;;;;4.55;2.33;;;3.10;85.50;;;;;;2074487;28;20072;-82
2021/01/27 02:47:21;;;;;;;4.20;2.38;;;3.10;85.60;;;;;;2080948;28;20032;-82
2021/01/27 02:48:32;;;;;;;4.68;2.33;;;3.10;85.90;;;;;;2082044;28;20017;-82
2021/01/27 02:49:42;;;;;;;4.65;2.20;;;3.10;85.70;;;;;;2089205;28;20039;-81
2021/01/27 02:51:03;;;;;;;4.43;2.25;;;3.10;85.70;;;;;;2080941;28;20491;-82
2021/01/27 02:52:15;;;;;;;4.28;2.22;;;3.10;85.80;;;;;;2090484;28;20140;-81
2021/01/27 02:53:27;;;;;;;3.70;2.08;;;3.10;85.80;;;;;;2086951;28;20025;-82
2021/01/27 02:54:33;;;;;;;3.50;2.10;;;3.10;85.80;;;;;;2090426;28;20065;-82
2021/01/27 02:55:42;;;;;;;2.83;1.75;;;3.10;85.80;;;;;;2091511;28;20391;-81
2021/01/27 02:57:07;;;;;;;4.88;2.58;;;3.10;85.80;;;;;;2074449;28;20089;-82
2021/01/27 02:58:15;;;;;;;4.28;2.03;;;3.10;85.80;;;;;;2081557;28;20104;-82
2021/01/27 02:59:31;;;;;;;3.67;1.77;;;3.10;85.90;;;;;;2089054;28;20080;-82
2021/01/27 03:00:36;;;;;;;3.53;1.95;;;3.10;85.90;;;;;;2081063;28;20025;-82
2021/01/27 03:01:47;;;;;;;3.08;1.90;;;3.10;85.80;;;;;;2080789;28;20024;-81
2021/01/27 03:03:01;;;;;;;4.05;2.08;;;3.20;86.00;;;;;;2086286;28;20090;-82
2021/01/27 03:04:07;;;;;;;4.35;2.15;;;3.10;85.80;;;;;;2085209;28;20482;-82
2021/01/27 03:05:11;;;;;;;4.32;2.17;;;3.10;85.80;;;;;;2080650;28;20034;-82
2021/01/27 03:06:16;;;;;;;4.57;2.10;;;3.20;85.90;;;;;;2088880;28;20040;-82
2021/01/27 03:07:19;;;;;;;3.20;1.80;;;3.20;85.90;;;;;;2088234;28;20158;-82
2021/01/27 03:08:26;;;;;;;4.05;2.20;;;3.10;85.90;;;;;;2076415;28;20104;-82
2021/01/27 03:09:50;;;;;;;4.25;2.10;;;3.20;85.90;;;;;;2080002;28;20395;-82
2021/01/27 03:11:13;;;;;;;3.47;1.85;;;3.20;85.90;;;;;;2095918;28;20036;-82
2021/01/27 03:12:14;;;;;;;4.38;2.17;;;3.10;85.90;;;;;;2086606;28;20641;-82
2021/01/27 03:13:14;;;;;;;3.45;2.03;;;3.20;86.50;;;;;;2084458;28;20108;-82
2021/01/27 03:14:15;;;;;;;4.28;1.73;;;3.20;85.90;;;;;;2080757;28;20087;-82
2021/01/27 03:15:17;;;;;;;4.55;1.80;;;3.10;85.90;;;;;;2070728;28;20097;-82
2021/01/27 03:16:27;;;;;;;6.22;2.03;;;3.20;86.00;;;;;;2080567;28;20042;-82
2021/01/27 03:17:30;;;;;;;3.78;1.83;;;3.10;85.90;;;;;;2080792;28;20123;-82
2021/01/27 03:18:34;;;;;;;3.95;2.10;;;3.20;86.00;;;;;;2081277;28;20040;-82
2021/01/27 03:19:40;;;;;;;3.30;1.77;;;3.20;86.00;;;;;;2085192;28;20108;-82
2021/01/27 03:20:43;;;;;;;3.85;1.80;;;3.20;86.00;;;;;;2086478;28;20364;-82
2021/01/27 03:21:49;;;;;;;2.53;1.50;;;3.10;85.90;;;;;;2082841;28;20021;-82
2021/01/27 03:23:27;;;;;;;2.90;1.70;;;3.20;86.00;;;;;;2084963;28;20035;-82
2021/01/27 03:24:34;;;;;;;4.00;1.73;;;3.20;86.00;;;;;;2077317;28;20017;-82
2021/01/27 03:25:53;;;;;;;3.47;1.70;;;3.20;86.10;;;;;;2079435;28;20403;-82
2021/01/27 03:27:03;;;;;;;3.10;1.63;;;3.10;86.00;;;;;;2080307;28;20644;-82
2021/01/27 03:28:17;;;;;;;2.67;1.50;;;3.20;86.00;;;;;;2081582;28;20037;-82
2021/01/27 03:29:39;;;;;;;3.30;1.80;;;3.20;86.00;;;;;;2074332;28;20029;-82
2021/01/27 03:30:40;;;;;;;3.10;1.35;;;3.20;86.00;;;;;;2081079;28;20064;-82
2021/01/27 03:31:40;;;;;;;3.28;1.60;;;3.20;86.00;;;;;;2080929;28;20068;-82
2021/01/27 03:33:05;;;;;;;4.05;1.65;;;3.20;86.00;;;;;;2092830;28;20118;-82
2021/01/27 03:34:10;;;;;;;4.60;1.38;;;3.20;86.00;;;;;;2084559;28;20025;-82
2021/01/27 03:35:21;;;;;;;3.80;1.58;;;3.20;86.00;;;;;;2083867;28;20144;-83
2021/01/27 03:36:22;;;;;;;2.47;1.55;;;3.20;86.00;;;;;;2080921;28;20153;-81
2021/01/27 03:37:37;;;;;;;2.08;1.40;;;3.10;86.00;;;;;;2071860;28;20104;-82
2021/01/27 03:38:43;;;;;;;2.50;1.45;;;3.10;86.00;;;;;;2075210;28;20118;-82
2021/01/27 03:39:47;;;;;;;3.63;1.55;;;3.10;86.00;;;;;;2080843;28;20014;-82
2021/01/27 03:40:52;;;;;;;2.97;1.48;;;3.10;86.10;;;;;;2102688;28;20032;-82
2021/01/27 03:42:02;;;;;;;3.13;1.40;;;3.10;86.10;;;;;;2087806;28;20501;-82
2021/01/27 03:43:25;;;;;;;2.60;1.40;;;3.10;86.10;;;;;;2096137;28;20571;-82
2021/01/27 03:44:36;;;;;;;3.20;1.50;;;3.10;86.10;;;;;;2085742;28;20061;-82
2021/01/27 03:45:46;;;;;;;3.50;1.50;;;3.10;86.10;;;;;;2083026;28;20177;-81
2021/01/27 03:47:08;;;;;;;2.60;1.33;;;3.10;86.10;;;;;;2087610;28;20048;-82
2021/01/27 03:48:15;;;;;;;2.40;1.23;;;3.10;86.80;;;;;;2093325;28;20024;-82
2021/01/27 03:49:24;;;;;;;2.92;1.52;;;3.10;86.10;;;;;;2083347;28;20044;-82
2021/01/27 03:50:26;;;;;;;2.58;1.30;;;3.10;86.20;;;;;;2077367;28;20028;-82
2021/01/27 03:51:33;;;;;;;3.53;1.40;;;3.10;86.20;;;;;;2097171;28;20024;-81
2021/01/27 03:52:40;;;;;;;3.53;1.80;;;3.10;86.30;;;;;;2088842;28;20491;-82
2021/01/27 03:53:41;;;;;;;3.05;1.60;;;3.10;86.40;;;;;;2080579;28;20439;-82
2021/01/27 03:54:47;;;;;;;3.10;1.60;;;3.10;86.40;;;;;;2080721;28;20029;-82
2021/01/27 03:56:11;;;;;;;2.65;1.35;;;3.10;86.40;;;;;;2078181;28;20406;-82
2021/01/27 03:57:19;;;;;;;2.70;1.48;;;3.10;86.40;;;;;;2078530;28;20511;-82
2021/01/27 03:58:39;;;;;;;4.30;1.73;;;3.00;86.50;;;;;;2080351;28;20391;-82
2021/01/27 03:59:43;;;;;;;3.95;1.60;;;3.00;86.50;;;;;;2080396;28;20025;-82
2021/01/27 04:00:46;;;;;;;2.78;1.30;;;3.00;86.50;;;;;;2081620;28;20035;-82
2021/01/27 04:01:52;;;;;;;2.50;1.30;;;3.00;86.60;;;;;;2081311;28;20025;-82
2021/01/27 04:03:20;;;;;;;2.90;1.33;;;3.00;86.60;;;;;;2082020;28;20048;-82
2021/01/27 04:04:22;;;;;;;2.30;1.30;;;3.00;86.60;;;;;;2078218;28;20422;-82
2021/01/27 04:05:23;;;;;;;2.63;1.30;;;3.00;86.60;;;;;;2071851;28;20093;-82
2021/01/27 04:06:23;;;;;;;2.25;1.40;;;3.00;86.60;;;;;;2071762;28;20108;-82
2021/01/27 04:07:24;;;;;;;2.53;1.30;;;3.00;86.70;;;;;;2069978;28;20331;-82
2021/01/27 04:08:25;;;;;;;2.88;1.45;;;3.00;86.80;;;;;;2063545;28;20026;-82
2021/01/27 04:09:25;;;;;;;2.95;1.30;;;3.00;86.90;;;;;;2072901;28;20034;-82
2021/01/27 04:10:26;;;;;;;3.70;1.58;;;3.00;86.90;;;;;;2078287;28;20052;-82
2021/01/27 04:11:27;;;;;;;3.42;1.25;;;3.00;87.00;;;;;;2062960;28;20035;-82
2021/01/27 04:12:27;;;;;;;3.13;1.60;;;3.00;87.00;;;;;;2078233;28;20128;-82
2021/01/27 04:13:29;;;;;;;4.63;1.60;;;3.00;87.70;;;;;;2073208;28;20025;-82
2021/01/27 04:14:30;;;;;;;3.08;1.60;;;2.90;87.00;;;;;;2071504;28;20066;-82
2021/01/27 04:15:31;;;;;;;3.28;1.95;;;3.00;87.10;;;;;;2081786;28;20038;-83
2021/01/27 04:16:32;;;;;;;2.80;1.48;;;2.90;87.00;;;;;;2072994;28;20046;-82
2021/01/27 04:17:32;;;;;;;2.55;1.17;;;2.90;87.10;;;;;;2080003;28;20065;-82
2021/01/27 04:18:33;;;;;;;2.08;1.25;;;2.90;87.10;;;;;;2081098;28;20827;-81
2021/01/27 04:19:34;;;;;;;2.83;1.50;;;3.00;87.20;;;;;;2090394;28;20049;-82
2021/01/27 04:20:35;;;;;;;3.08;1.23;;;3.00;87.20;;;;;;2092512;28;20016;-80
2021/01/27 04:21:36;;;;;;;2.90;1.35;;;3.00;87.30;;;;;;2099898;28;20044;-81
2021/01/27 04:22:36;;;;;;;2.13;1.10;;;3.00;87.30;;;;;;2096074;28;20016;-81
2021/01/27 04:23:37;;;;;;;3.15;1.50;;;3.00;87.30;;;;;;2091600;28;20087;-81
2021/01/27 04:24:37;;;;;;;2.40;1.08;;;3.00;87.30;;;;;;2092094;28;20018;-82
2021/01/27 04:25:38;;;;;;;2.42;1.38;;;3.00;87.30;;;;;;2077886;28;20519;-81
2021/01/27 04:26:39;;;;;;;2.63;1.50;;;3.00;87.30;;;;;;2064948;28;20068;-81
2021/01/27 04:27:40;;;;;;;2.88;1.50;;;3.00;87.20;;;;;;2064315;28;20432;-81
2021/01/27 04:28:41;;;;;;;3.33;1.40;;;3.00;87.30;;;;;;2080960;28;20029;-82
2021/01/27 04:29:42;;;;;;;2.92;1.30;;;3.00;87.30;;;;;;2087634;28;20049;-81
2021/01/27 04:30:43;;;;;;;2.88;1.48;;;3.00;87.30;;;;;;2085633;28;20081;-81
2021/01/27 04:31:43;;;;;;;2.55;1.25;;;3.00;87.30;;;;;;2082645;28;20076;-82
2021/01/27 04:32:44;;;;;;;2.78;1.40;;;3.00;87.30;;;;;;2067783;28;20034;-81
2021/01/27 04:33:45;;;;;;;2.20;1.20;;;3.00;87.30;;;;;;2079025;28;20026;-80
2021/01/27 04:34:46;;;;;;;2.50;1.45;;;3.00;87.30;;;;;;2081722;28;20113;-82
2021/01/27 04:35:47;;;;;;;2.78;1.42;;;3.00;87.30;;;;;;2079413;28;20523;-81
2021/01/27 04:36:48;;;;;;;3.08;1.50;;;3.10;87.30;;;;;;2072062;28;20053;-81
2021/01/27 04:37:49;;;;;;;2.40;1.30;;;3.00;87.30;;;;;;2064714;28;20049;-81
2021/01/27 04:38:50;;;;;;;3.17;1.45;;;3.00;87.30;;;;;;2080874;28;20021;-81
2021/01/27 04:39:51;;;;;;;4.07;1.85;;;3.00;87.30;;;;;;2081546;28;20579;-81
2021/01/27 04:40:56;;;;;;;3.08;1.55;;;3.00;87.30;;;;;;2072544;28;20519;-81
2021/01/27 04:41:57;;;;;;;2.88;1.40;;;3.00;87.30;;;;;;2074841;28;20030;-81
2021/01/27 04:42:58;;;;;;;3.85;1.52;;;3.00;87.30;;;;;;2079707;28;20033;-82
2021/01/27 04:43:59;;;;;;;2.65;1.35;;;3.00;87.30;;;;;;2074432;28;20026;-81
2021/01/27 04:45:00;;;;;;;3.33;1.52;;;3.00;87.30;;;;;;2077718;28;20075;-81
2021/01/27 04:46:07;;;;;;;3.28;1.70;;;3.00;87.30;;;;;;2082271;28;20129;-81
2021/01/27 04:47:26;;;;;;;3.33;1.35;;;3.00;87.30;;;;;;2082437;28;20033;-81
2021/01/27 04:48:55;;;;;;;3.25;1.50;;;3.00;87.30;;;;;;2086154;28;20021;-81
2021/01/27 04:50:05;;;;;;;2.78;1.40;;;3.00;87.40;;;;;;2085743;28;20526;-80
2021/01/27 04:51:13;;;;;;;3.30;1.50;;;3.00;87.30;;;;;;2100759;28;20075;-80
2021/01/27 04:52:41;;;;;;;3.42;1.45;;;3.00;87.30;;;;;;2098926;28;20039;-80
2021/01/27 04:54:06;;;;;;;2.45;1.33;;;3.00;87.30;;;;;;2088112;28;20039;-80
2021/01/27 04:55:16;;;;;;;2.55;1.50;;;3.00;87.40;;;;;;2101597;28;20001;-80
2021/01/27 04:56:19;;;;;;;3.22;1.52;;;3.00;87.40;;;;;;2098880;28;20036;-81
2021/01/27 04:57:48;;;;;;;2.72;1.40;;;3.00;87.40;;;;;;2079636;28;20065;-81
2021/01/27 04:58:59;;;;;;;4.20;1.40;;;3.00;87.40;;;;;;2077832;28;20029;-80
2021/01/27 05:00:40;;;;;;;2.63;1.35;;;3.00;87.40;;;;;;2088803;28;20037;-81
2021/01/27 05:01:55;;;;;;;2.55;1.35;;;3.00;87.40;;;;;;2071644;28;20042;-81
2021/01/27 05:03:34;;;;;;;2.08;1.10;;;3.00;87.40;;;;;;2074634;28;20034;-81
2021/01/27 05:04:58;;;;;;;2.25;1.40;;;3.00;87.40;;;;;;2074159;28;20121;-80
2021/01/27 05:06:04;;;;;;;2.00;1.20;;;3.00;87.40;;;;;;2073885;28;20025;-81
2021/01/27 05:07:11;;;;;;;2.45;1.30;;;3.00;87.40;;;;;;2079443;28;20389;-80
2021/01/27 05:08:30;;;;;;;4.93;1.50;;;3.00;87.40;;;;;;2104170;28;20020;-81
2021/01/27 05:09:35;;;;;;;2.88;1.35;;;2.90;87.40;;;;;;2094954;28;20052;-80
2021/01/27 05:10:53;;;;;;;3.33;1.30;;;2.90;87.40;;;;;;2077148;28;20046;-80
2021/01/27 05:11:55;;;;;;;2.47;1.23;;;3.00;87.60;;;;;;2075359;28;20484;-80
2021/01/27 05:13:02;;;;;;;3.30;1.42;;;2.90;87.50;;;;;;2084733;28;20017;-82
2021/01/27 05:14:06;;;;;;;3.00;1.60;;;2.90;87.60;;;;;;2083198;28;20025;-81
2021/01/27 05:15:09;;;;;;;3.72;1.80;;;2.90;87.60;;;;;;2081406;28;20026;-81
2021/01/27 05:16:16;;;;;;;3.33;1.52;;;2.90;87.60;;;;;;2076161;28;20022;-81
2021/01/27 05:17:19;;;;;;;3.08;1.60;;;2.90;87.70;;;;;;2074925;28;20038;-81
2021/01/27 05:18:20;;;;;;;2.83;1.50;;;2.90;87.70;;;;;;2079666;28;20064;-81
2021/01/27 05:19:21;;;;;;;3.42;1.50;;;2.90;88.40;;;;;;2073207;28;20423;-81
2021/01/27 05:20:21;;;;;;;3.28;1.50;;;2.90;87.80;;;;;;2075161;28;20077;-82
2021/01/27 05:21:25;;;;;;;3.55;1.67;;;2.90;87.90;;;;;;2097297;28;20028;-81
2021/01/27 05:22:27;;;;;;;3.17;1.63;;;2.90;87.90;;;;;;2081852;28;20029;-81
2021/01/27 05:23:28;;;;;;;2.60;1.60;;;2.90;87.90;;;;;;2098359;28;20024;-81
2021/01/27 05:24:28;;;;;;;2.55;1.30;;;3.00;88.00;;;;;;2098385;28;20103;-81
2021/01/27 05:25:35;;;;;;;3.08;1.90;;;3.00;88.60;;;;;;2076428;28;20025;-81
2021/01/27 05:26:58;;;;;;;3.05;1.58;;;2.90;88.10;;;;;;2073616;28;20053;-81
2021/01/27 05:28:01;;;;;;;2.33;1.30;;;3.00;88.20;;;;;;2078747;28;20533;-81
2021/01/27 05:29:08;;;;;;;3.35;1.60;;;3.00;88.10;;;;;;2081914;28;20022;-81
2021/01/27 05:30:25;;;;;;;2.45;1.33;;;2.90;88.10;;;;;;2074318;28;20025;-81
2021/01/27 05:32:04;;;;;;;2.40;1.50;;;3.00;88.10;;;;;;2081855;28;20037;-81
2021/01/27 05:33:04;;;;;;;2.13;1.30;;;3.00;88.10;;;;;;2089705;28;20056;-81
2021/01/27 05:34:05;;;;;;;2.92;1.33;;;2.90;88.10;;;;;;2089799;28;20024;-81
2021/01/27 05:35:25;;;;;;;2.67;1.50;;;3.00;88.10;;;;;;2074712;28;20526;-81
2021/01/27 05:36:28;;;;;;;2.83;1.53;;;2.90;88.20;;;;;;2076134;28;20022;-81
2021/01/27 05:37:28;;;;;;;3.35;1.45;;;2.90;88.20;;;;;;2082682;28;20284;-80
2021/01/27 05:38:32;;;;;;;2.65;1.60;;;2.90;88.20;;;;;;2081642;28;20040;-80
2021/01/27 05:39:34;;;;;;;2.80;1.50;;;2.90;88.30;;;;;;2097459;28;20435;-81
2021/01/27 05:40:36;;;;;;;2.47;1.50;;;2.90;88.40;;;;;;2092113;28;20025;-81
2021/01/27 05:41:37;;;;;;;3.33;1.83;;;2.90;88.40;;;;;;2081765;28;20057;-81
2021/01/27 05:42:39;;;;;;;2.70;1.67;;;2.90;88.50;;;;;;2073240;28;20492;-80
2021/01/27 05:43:40;;;;;;;3.15;1.80;;;2.90;88.60;;;;;;2073572;28;20025;-81
2021/01/27 05:44:41;;;;;;;4.35;1.88;;;2.90;88.60;;;;;;2079226;28;20013;-81
2021/01/27 05:45:47;;;;;;;2.95;1.73;;;2.80;88.70;;;;;;2073244;28;20494;-81
2021/01/27 05:46:47;;;;;;;2.92;1.80;;;2.80;88.80;;;;;;2073952;28;20442;-81
2021/01/27 05:47:48;;;;;;;3.28;1.75;;;2.80;88.80;;;;;;2082832;28;20029;-81
2021/01/27 05:48:50;;;;;;;4.07;2.05;;;2.80;88.90;;;;;;2067702;28;20080;-81
2021/01/27 05:49:51;;;;;;;3.35;1.98;;;2.80;89.00;;;;;;2073381;28;20026;-81
2021/01/27 05:50:54;;;;;;;4.35;1.92;;;2.80;89.00;;;;;;2098092;28;20029;-81